»·PEaware :: N352QN KHIO-CYYJ

N352QN :: KHIO-CYYJ

FLIGHT INFORMATION

Flight Status: Arrived
Operator: Privately registered:
United States
More flights under this callsign
Pilot: Jacob H. (10561)
Aircraft: SOCATA TBM-900
(TBM9)
More flights by this aircraft type
Origin: KHIO Portland-Hillsboro
United States
Destination: CYYJ Victoria Intl
Canada
More flights between these airports :: More routes between these airports
Route: SCAPO DISCO DISCO3
File this flight plan on PilotEdge
Remarks:
Altitude:
(Current/Filed)
28,000ft
Speed:
(Current/Filed)
318kts
Departed: 04-May-19 07:40 AM
Arrived: 04-May-19 08:36 AM
Distance/Time
Traveled:
188nm/0:55
Distance/Time
To Go:
Arrived

Flight Plot

Page will automatically refresh every two minutes.

Flight plan parsing failed; only flown route is shown


Map Options




Map Legend


Flown Route
Filed Route
Departure Airport
Arrival Airport
Navaid (VOR, NDB)
Fix

Horizontal Profiles

Position Reports

Time Latitude Longitude Heading Altitude Ground
Speed
04-May-19 07:22 45.534996 -122.947754 256 200ft 0kts
04-May-19 07:23 45.534996 -122.947754 256 200ft 0kts
04-May-19 07:24 45.534996 -122.947754 256 200ft 0kts
04-May-19 07:25 45.534996 -122.947754 256 200ft 0kts
04-May-19 07:26 45.534996 -122.947754 256 200ft 0kts
04-May-19 07:27 45.534996 -122.947754 256 200ft 0kts
04-May-19 07:28 45.534996 -122.947754 256 200ft 0kts
04-May-19 07:29 45.534996 -122.947754 256 200ft 0kts
04-May-19 07:30 45.534996 -122.947754 256 200ft 0kts
04-May-19 07:31 45.534996 -122.947754 256 200ft 0kts
04-May-19 07:32 45.534996 -122.947754 256 200ft 0kts
04-May-19 07:33 45.534996 -122.947754 256 200ft 0kts
04-May-19 07:34 45.534996 -122.947754 256 200ft 0kts
04-May-19 07:35 45.534996 -122.947754 256 200ft 0kts
04-May-19 07:36 45.534996 -122.947754 256 200ft 0kts
04-May-19 07:37 45.535143 -122.947471 16 200ft 14kts
04-May-19 07:38 45.536798 -122.947258 17 200ft 4kts
04-May-19 07:39 45.550632 -122.961070 316 768ft 120kts
04-May-19 07:40 45.576746 -122.990069 323 3076ft 123kts
04-May-19 07:41 45.606531 -123.009747 353 5356ft 121kts
04-May-19 07:42 45.639609 -123.014123 354 7694ft 124kts
04-May-19 07:43 45.672451 -123.018204 354 10005ft 124kts
04-May-19 07:44 45.705404 -123.022266 353 12232ft 126kts
04-May-19 07:45 45.739070 -123.026404 354 14435ft 130kts
04-May-19 07:46 45.774001 -123.029178 356 16673ft 133kts
04-May-19 07:47 45.810558 -123.031165 357 18899ft 139kts
04-May-19 07:48 45.848797 -123.033200 357 21005ft 146kts
04-May-19 07:49 45.888330 -123.035369 357 23088ft 148kts
04-May-19 07:50 45.928235 -123.037541 357 24889ft 152kts
04-May-19 07:51 45.971234 -123.039874 358 26806ft 159kts
04-May-19 07:52 46.017093 -123.042361 358 28138ft 196kts
04-May-19 07:53 46.075749 -123.045517 358 28128ft 251kts
04-May-19 07:54 46.133405 -123.048698 357 28123ft 272kts
04-May-19 07:55 46.209325 -123.052884 357 28115ft 284kts
04-May-19 07:56 46.296400 -123.057683 357 28112ft 287kts
04-May-19 07:57 46.379868 -123.062294 357 28111ft 289kts
04-May-19 07:58 46.450942 -123.066230 357 28110ft 289kts
04-May-19 07:59 46.521769 -123.070157 357 28109ft 289kts
04-May-19 08:00 46.599795 -123.074499 357 28108ft 288kts
04-May-19 08:01 46.683995 -123.079199 357 28107ft 288kts
04-May-19 08:02 46.765131 -123.083740 357 28107ft 288kts
04-May-19 08:03 46.845193 -123.088233 358 28106ft 288kts
04-May-19 08:04 46.924845 -123.092672 357 28090ft 288kts
04-May-19 08:05 47.005170 -123.097189 355 27086ft 285kts
04-May-19 08:06 47.083437 -123.101676 355 25885ft 277kts
04-May-19 08:07 47.158607 -123.105970 355 24666ft 271kts
04-May-19 08:08 47.233141 -123.110218 355 23605ft 267kts
04-May-19 08:09 47.307124 -123.114447 355 22322ft 264kts
04-May-19 08:10 47.379017 -123.118557 355 21317ft 254kts
04-May-19 08:11 47.450099 -123.122650 355 20079ft 257kts
04-May-19 08:12 47.520504 -123.126701 355 19035ft 253kts
04-May-19 08:13 47.589903 -123.130714 355 17876ft 259kts
04-May-19 08:14 47.660769 -123.134801 355 16726ft 244kts
04-May-19 08:15 47.726840 -123.138648 355 15706ft 243kts
04-May-19 08:16 47.793046 -123.142499 355 14637ft 244kts
04-May-19 08:17 47.855271 -123.146125 355 13622ft 240kts
04-May-19 08:18 47.920509 -123.149944 356 12595ft 239kts
04-May-19 08:19 47.988634 -123.153946 356 11589ft 241kts
04-May-19 08:20 48.054232 -123.157814 356 10451ft 233kts
04-May-19 08:21 48.117777 -123.161552 357 9453ft 229kts
04-May-19 08:22 48.181141 -123.165285 357 8473ft 229kts
04-May-19 08:23 48.244066 -123.168999 357 7447ft 226kts
04-May-19 08:24 48.306495 -123.172703 357 6453ft 225kts
04-May-19 08:25 48.368860 -123.176420 357 5466ft 226kts
04-May-19 08:26 48.429277 -123.175239 3 4710ft 221kts
04-May-19 08:27 48.489268 -123.168917 3 3500ft 222kts
04-May-19 08:28 48.546488 -123.162928 3 2997ft 199kts
04-May-19 08:29 48.597080 -123.165679 314 2990ft 188kts
04-May-19 08:30 48.614080 -123.240203 286 2334ft 181kts
04-May-19 08:31 48.626030 -123.303351 286 1520ft 147kts
04-May-19 08:32 48.634922 -123.350312 286 882ft 95kts
04-May-19 08:33 48.641732 -123.386830 286 407ft 89kts
04-May-19 08:35 48.648519 -123.422160 286 22ft 83kts
04-May-19 08:36 48.648980 -123.432108 248 22ft 0kts
04-May-19 08:37 48.648980 -123.432108 248 22ft 0kts

Navigation Log

Ident Type
Flight plan parsing failed, navigation log unavailable